クリスマス島空港の過去48時間の天気

クリスマス島空港 (Christmas Island Aerodrome)

現在時刻: 12/8 13:09 +07 (12/8 06:09 UTC) 以下の時間は現地時間です。

過去48時間のMETAR気象情報
時間 風向 風速(m/s) 視程 気温(℃) 湿度(%) 気圧(hPa) 天気現象
8 13:00 西 3 1000m 23 100 1011 強い雨
8 12:55 西 4 600m 23 100 1011 強い雨
8 12:30 東南東 3 4800m 23 100 1011
8 12:11 南西 3 1000m 23 100 1011 強い雨
8 12:00 3 2200m 23 100 1011
8 11:43 東南東 2 1700m 23 100 1011 強いしゅう雨
8 11:30 南東 2 1200m 23 100 1011 強いしゅう雨
8 11:07 東北東 6 2100m 23 100 1012 強いしゅう雨
8 10:58 南東 2 10km以上 24 100 1011 弱いしゅう雨
8 10:35 南東 4 6000m 24 100 1012 強い霧雨
8 10:30 南南東 3 10km以上 24 100 1012 霧雨
8 10:00 南東 3 10km以上 25 100 1012
8 09:30 南東 4 10km以上 24 100 1012
8 09:00 南東 4 10km以上 24 100 1012
8 08:54 南東 4 10km以上 24 100 1012
8 08:35 南東 4 5000m 24 100 1011 弱い雨
8 08:00 南東 4 10km以上 25 100 1011
8 07:30 南南東 3 10km以上 25 100 1011
8 07:00 南南東 4 10km以上 24 100 1011
8 06:30 南南東 3 10km以上 24 100 1011
8 06:00 南南東 3 10km以上 24 100 1010
8 05:30 南南東 3 10km以上 24 100 1010
8 05:00 南南東 3 10km以上 24 100 1010
8 04:33 南南東 3 10km以上 24 100 1009 弱いしゅう雨
8 04:24 3 7000m 24 100 1009
8 04:10 南南東 4 6000m 24 100 1009
8 04:06 南南東 3 10km以上 24 100 1009 霧雨
8 03:30 南南東 3 10km以上 24 100 1009
8 03:00 南南東 3 10km以上 24 100 1009
8 02:30 南南東 4 10km以上 24 100 1009
8 02:00 南南東 3 10km以上 24 100 1010
8 01:30 南南東 3 10km以上 24 100 1010
8 01:00 南南東 3 10km以上 24 100 1010
8 00:30 南南東 3 10km以上 24 100 1010
8 00:14 南南東 3 10km以上 24 100 1010
8 00:00 南南東 3 10km以上 24 100 1011
7 23:30 南東 3 10km以上 24 100 1011
7 23:00 南東 3 10km以上 24 100 1012
7 22:30 南東 3 10km以上 24 100 1011
7 22:00 南東 3 10km以上 24 100 1011
7 21:30 南東 3 10km以上 24 100 1011
7 21:00 南東 3 10km以上 24 100 1011
7 20:30 南東 3 10km以上 24 100 1011
7 20:00 南東 3 10km以上 24 100 1011
7 19:37 南東 3 10km以上 24 100 1010
7 19:30 南東 3 10km以上 24 100 1010
7 19:20 南東 3 10km以上 24 100 1010
7 19:00 南東 2 10km以上 24 100 1010
7 18:30 南東 3 10km以上 24 100 1010
7 18:00 南東 3 10km以上 24 100 1010
7 17:30 南東 4 10km以上 25 100 1009
7 17:00 南東 4 10km以上 25 100 1009
7 16:30 南東 3 10km以上 25 100 1009
7 16:15 南東 3 10km以上 24 100 1009 弱いしゅう雨
7 16:00 南南東 3 3900m 24 100 1009
7 15:30 南東 4 10km以上 25 100 1009
7 15:00 東南東 4 10km以上 25 100 1009
7 14:35 南東 4 10km以上 26 100 1009
7 14:16 南東 3 10km以上 25 100 1009 弱いしゅう雨
7 14:00 東南東 5 3400m 24 100 1009 弱い雨
7 13:56 東南東 5 5000m 25 94 1009 霧雨 もや
7 13:30 南東 5 10km以上 27 89 1009
7 13:00 東南東 5 10km以上 27 89 1010
7 12:30 南東 5 10km以上 26 89 1010
7 12:00 南東 5 10km以上 27 89 1010
7 11:30 南東 5 10km以上 26 89 1010
7 11:00 南東 5 10km以上 26 89 1011
7 10:30 南東 5 10km以上 26 89 1011
7 10:00 東南東 6 10km以上 26 89 1011
7 09:30 南東 6 10km以上 26 89 1011
7 09:00 南東 5 10km以上 26 94 1011
7 08:30 南東 5 10km以上 26 94 1011
7 08:00 南東 5 10km以上 25 94 1011
7 07:30 南東 5 10km以上 25 100 1011
7 07:00 南東 5 10km以上 25 100 1010
7 06:30 南東 4 10km以上 24 100 1010
7 06:00 南東 5 10km以上 24 100 1010
7 05:30 南東 4 10km以上 24 100 1009
7 05:00 南東 4 10km以上 24 100 1009
7 04:30 南東 4 10km以上 24 100 1009
7 04:00 南東 4 10km以上 24 100 1009
7 03:30 南東 4 10km以上 24 100 1009
7 03:00 南東 4 10km以上 24 100 1009
7 02:30 南東 4 10km以上 24 100 1009
7 02:00 南東 4 10km以上 24 100 1009
7 01:30 南東 4 10km以上 24 100 1010
7 01:00 南東 4 10km以上 24 100 1010
7 00:30 南東 4 10km以上 24 100 1010
7 00:00 南東 4 10km以上 24 100 1011
6 23:30 南東 4 10km以上 24 100 1011
6 23:00 南東 4 10km以上 24 100 1011
6 22:30 南東 4 10km以上 24 100 1011
6 22:00 南東 5 10km以上 24 100 1011
6 21:30 南東 4 10km以上 24 100 1011
6 21:00 南東 4 10km以上 24 100 1011
6 20:30 南東 4 10km以上 24 100 1010
6 20:00 南東 4 10km以上 24 100 1010
6 19:30 南東 4 10km以上 24 100 1010
6 19:00 南東 3 10km以上 23 100 1010
6 18:52 南東 3 10km以上 23 100 1010
6 18:30 南東 4 10km以上 23 100 1010
6 18:00 東南東 3 10km以上 23 100 1010
6 17:30 東南東 4 10km以上 23 100 1009
6 17:20 東南東 4 10km以上 23 100 1009 弱い霧雨
6 17:00 東南東 5 500m 23 100 1009 弱い雨
6 16:30 東南東 5 350m 23 100 1009 弱い雨
6 16:08 東南東 5 6000m 23 100 1009 弱い雨
6 15:30 東北東 4 450m 23 100 1009 強い雨
6 15:00 東南東 5 1700m 22 100 1009 強い雨
6 14:00 南東 5 10km以上 25 100 1009
6 13:30 南東 5 10km以上 25 100 1010
6 13:15 南東 5 10km以上 25 100 1010
YPXM 080600Z AUTO 26005KT 1000 +RA BKN004 BKN009 OVC012 23/23 Q1011
YPXM 080555Z AUTO 26007KT 0600 +RA SCT004 OVC012 OVC016 23/23 Q1011
YPXM 080530Z AUTO 12005KT 4800 RA BKN003 BKN006 OVC012 23/23 Q1011
YPXM 080511Z AUTO 22006KT 170V250 1000 +RA SCT005 BKN012 BKN024 23/23 Q1011
YPXM 080500Z AUTO 19005KT 120V230 2200 RA SCT004 BKN024 BKN031 23/23 Q1011
YPXM 080443Z AUTO 12004KT 1700 +SHRA SCT004 SCT012 BKN020 23/23 Q1011
YPXM 080430Z AUTO 13003KT 1200 +SHRA SCT005 BKN012 OVC018 23/23 Q1011
YPXM 080407Z AUTO 07011KT 050V130 2100 +SHRA SCT004 BKN010 BKN021 23/23 Q1012
YPXM 080358Z AUTO 13003KT 9999 -SHRA SCT005 SCT011 BKN022 24/24 Q1011
YPXM 080335Z AUTO 13007KT 6000 +DZ BKN005 BKN011 OVC017 24/24 Q1012
YPXM 080330Z AUTO 15006KT 9999 DZ BKN006 BKN011 OVC016 24/24 Q1012
YPXM 080300Z AUTO 14005KT 9999 // SCT003 BKN011 BKN018 25/25 Q1012
YPXM 080230Z AUTO 13007KT 9999 // SCT004 BKN007 BKN012 24/24 Q1012
YPXM 080200Z AUTO 13008KT 9999 // OVC004 24/24 Q1012 RF00.0/005.4
YPXM 080154Z AUTO 13008KT 9999 // BKN003 OVC007 24/24 Q1012
YPXM 080135Z AUTO 14008KT 5000 -RA SCT002 BKN006 OVC011 24/24 Q1011
YPXM 080100Z AUTO 14007KT 9999 // BKN009 OVC014 25/25 Q1011
YPXM 080030Z AUTO 15006KT 9999 // BKN009 BKN014 BKN019 25/25 Q1011
YPXM 080000Z AUTO 15007KT 9999 // BKN011 24/24 Q1011 RF00.0/005.0
YPXM 072330Z AUTO 16006KT 9999 // BKN009 BKN013 OVC019 24/24 Q1011
YPXM 072300Z AUTO 16006KT 9999 // BKN011 BKN027 OVC048 24/24 Q1010
YPXM 072230Z AUTO 15005KT 9999 // BKN008 BKN013 BKN017 24/24 Q1010
YPXM 072200Z AUTO 16006KT 9999 // BKN008 BKN014 OVC020 24/24 Q1010 RERA
YPXM 072133Z AUTO 16005KT 9999 -SHRA SCT006 BKN010 BKN019 24/24 Q1009 RESHRA
YPXM 072124Z AUTO 17005KT 7000 RA SCT006 SCT011 BKN019 24/24 Q1009
YPXM 072110Z AUTO 16007KT 140V200 6000 RA BKN006 BKN013 BKN018 24/24 Q1009
YPXM 072106Z AUTO 15006KT 9999 DZ BKN006 BKN011 BKN016 24/24 Q1009
YPXM 072030Z AUTO 16005KT 9999 // BKN005 OVC009 24/24 Q1009
YPXM 072000Z AUTO 15006KT 9999 // SCT004 BKN011 24/24 Q1009
YPXM 071930Z AUTO 16007KT 9999 // SCT011 BKN055 24/24 Q1009
YPXM 071900Z AUTO 16006KT 9999 // BKN007 OVC012 OVC055 24/24 Q1010
YPXM 071830Z AUTO 16006KT 9999 // SCT006 BKN012 BKN055 24/24 Q1010
YPXM 071800Z AUTO 15006KT 9999 // BKN012 BKN019 BKN028 24/24 Q1010
YPXM 071730Z AUTO 15006KT 9999 // BKN012 BKN016 BKN057 24/24 Q1010
YPXM 071714Z AUTO 15005KT 9999 // BKN012 BKN057 24/24 Q1010
YPXM 071700Z AUTO 15005KT 9999 // BKN012 BKN022 24/24 Q1011
YPXM 071630Z AUTO 14006KT 9999 // SCT010 BKN014 BKN020 24/24 Q1011
YPXM 071600Z AUTO 14005KT 9999 // BKN010 BKN020 OVC026 24/24 Q1012
YPXM 071530Z AUTO 14005KT 9999 // BKN010 OVC017 OVC025 24/24 Q1011
YPXM 071500Z AUTO 14005KT 9999 // BKN010 OVC015 24/24 Q1011
YPXM 071430Z AUTO 14005KT 9999 // BKN008 24/24 Q1011 RF00.0/003.2
YPXM 071400Z AUTO 14005KT 9999 // OVC006 24/24 Q1011 RF00.0/003.2
YPXM 071330Z AUTO 14005KT 9999 // SCT005 BKN010 24/24 Q1011
YPXM 071300Z AUTO 14005KT 9999 // BKN006 BKN010 24/24 Q1011
YPXM 071237Z AUTO 14006KT 9999 // BKN006 BKN021 24/24 Q1010
YPXM 071230Z AUTO 14006KT 9999 // SCT008 OVC021 24/24 Q1010
YPXM 071220Z AUTO 14006KT 9999 // SCT008 OVC019 24/24 Q1010
YPXM 071200Z AUTO 14004KT 9999 // BKN006 BKN010 OVC019 24/24 Q1010
YPXM 071130Z AUTO 13006KT 9999 // BKN006 OVC011 24/24 Q1010
YPXM 071100Z AUTO 14006KT 9999 // BKN004 BKN007 OVC016 24/24 Q1010
YPXM 071030Z AUTO 13007KT 9999 // SCT004 BKN008 BKN017 25/25 Q1009
YPXM 071000Z AUTO 13007KT 9999 // SCT006 BKN010 BKN013 25/25 Q1009
YPXM 070930Z AUTO 13006KT 9999 // SCT006 BKN012 OVC019 25/25 Q1009
YPXM 070915Z AUTO 13006KT 9999 -SHRA BKN006 OVC012 OVC017 24/24 Q1009
YPXM 070900Z AUTO 15006KT 130V190 3900 RA BKN007 OVC012 OVC016 24/24 Q1009
YPXM 070830Z AUTO 13007KT 9999 // BKN009 OVC016 25/25 Q1009
YPXM 070800Z AUTO 12008KT 9999 // BKN009 OVC054 25/25 Q1009
YPXM 070735Z AUTO 13008KT 9999 // BKN011 BKN021 BKN028 26/26 Q1009
YPXM 070716Z AUTO 14006KT 9999 -SHRA SCT011 BKN021 BKN028 25/25 Q1009
YPXM 070700Z AUTO 12009KT 3400 -RA BKN011 BKN023 BKN028 24/24 Q1009
YPXM 070656Z AUTO 12009KT 5000 DZ BR BKN011 BKN032 25/24 Q1009
YPXM 070630Z AUTO 13010KT 9999 // BKN011 BKN021 BKN025 27/25 Q1009
YPXM 070600Z AUTO 12009KT 9999 // BKN011 OVC027 27/25 Q1010
YPXM 070530Z AUTO 13010KT 9999 // OVC013 26/24 Q1010 RF00/0/001/0
YPXM 070500Z AUTO 13009KT 9999 // BKN013 BKN019 BKN030 27/25 Q1010
YPXM 070430Z AUTO 13009KT 9999 // BKN011 OVC032 26/24 Q1010
YPXM 070400Z AUTO 13010KT 9999 // OVC011 26/24 Q1011 RF00.0/000.6
YPXM 070330Z AUTO 13009KT 9999 // BKN013 OVC029 26/24 Q1011
YPXM 070300Z AUTO 12011KT 9999 // BKN013 OVC029 26/24 Q1011
YPXM 070230Z AUTO 13011KT 9999 // BKN013 26/24 Q1011 RF00.0/000.2
YPXM 070200Z AUTO 13010KT 9999 // OVC011 26/25 Q1011 RF00.0/008.4
YPXM 070130Z AUTO 13010KT 9999 // OVC013 26/25 Q1011 RF00.0/008.2
YPXM 070100Z AUTO 14010KT 9999 // BKN011 OVC029 25/24 Q1011
YPXM 070030Z AUTO 13010KT 9999 // BKN011 OVC031 25/25 Q1011
YPXM 070000Z AUTO 13009KT 9999 // BKN011 OVC025 25/25 Q1010
YPXM 062330Z AUTO 13008KT 9999 // OVC009 OVC015 24/24 Q1010
YPXM 062300Z AUTO 13009KT 9999 // OVC009 OVC013 24/24 Q1010
YPXM 062230Z AUTO 14007KT 9999 // BKN006 OVC009 24/24 Q1009
YPXM 062200Z AUTO 13008KT 9999 // SCT006 BKN011 OVC026 24/24 Q1009
YPXM 062130Z AUTO 13007KT 9999 // BKN010 BKN012 24/24 Q1009
YPXM 062100Z AUTO 14007KT 9999 // BKN010 BKN016 24/24 Q1009
YPXM 062030Z AUTO 13007KT 9999 // BKN010 24/24 Q1009 RF00.2/006.8
YPXM 062000Z AUTO 13007KT 9999 // BKN008 BKN013 BKN019 24/24 Q1009
YPXM 061930Z AUTO 13007KT 9999 // BKN008 BKN014 24/24 Q1009
YPXM 061900Z AUTO 14007KT 9999 // BKN008 BKN012 24/24 Q1009
YPXM 061830Z AUTO 13008KT 9999 // BKN008 BKN011 BKN025 24/24 Q1010
YPXM 061800Z AUTO 13008KT 9999 // SCT010 OVC016 24/24 Q1010
YPXM 061730Z AUTO 13007KT 9999 // BKN010 OVC013 24/24 Q1010
YPXM 061700Z AUTO 13007KT 9999 // BKN010 BKN016 OVC021 24/24 Q1011
YPXM 061630Z AUTO 13007KT 9999 // BKN010 24/24 Q1011 RF00.2/005.4
YPXM 061600Z AUTO 14007KT 9999 // BKN010 BKN014 24/24 Q1011
YPXM 061530Z AUTO 14008KT 9999 // BKN010 24/24 Q1011 RF00.2/005.0
YPXM 061500Z AUTO 14009KT 9999 // BKN010 24/24 Q1011 RF00.2/004.8
YPXM 061430Z AUTO 13008KT 9999 // BKN008 OVC013 24/24 Q1011
YPXM 061400Z AUTO 13008KT 9999 // BKN008 BKN013 24/24 Q1011
YPXM 061330Z AUTO 14007KT 9999 // BKN006 BKN010 OVC013 24/24 Q1010
YPXM 061300Z AUTO 13007KT 9999 // SCT004 OVC008 OVC013 24/24 Q1010
YPXM 061230Z AUTO 13007KT 9999 // BKN005 OVC011 24/24 Q1010
YPXM 061200Z AUTO 14006KT 9999 // BKN013 BKN018 OVC026 23/23 Q1010
YPXM 061152Z AUTO 14005KT 9999 // SCT002 BKN015 OVC021 23/23 Q1010
YPXM 061130Z AUTO 14007KT 9999 // BKN003 OVC022 23/23 Q1010
YPXM 061100Z AUTO 12006KT 9999 // BKN004 OVC021 OVC105 23/23 Q1010
YPXM 061030Z AUTO 12008KT 9999 // BKN003 BKN019 OVC115 23/23 Q1009
YPXM 061020Z AUTO 12008KT 9999 -DZ BKN002 BKN021 BKN037 23/23 Q1009
YPXM 061000Z AUTO 12009KT 0500 -RA OVC001 23/23 Q1009 RF00.0/002.2
YPXM 060930Z AUTO 12009KT 0350 -RA OVC001 23/23 Q1009 RF00.2/002.0
YPXM 060908Z AUTO 11009KT 6000 -RA OVC002 23/23 Q1009 RERA RF00/0/001/6
YPXM 060830Z AUTO 06007KT 0450 +RA OVC001 OVC008 23/23 Q1009
YPXM 060800Z AUTO 12009KT 1700 +RA BKN002 BKN010 BKN019 22/22 Q1009
YPXM 060700Z AUTO 13010KT 9999 // BKN008 OVC013 25/25 Q1009
YPXM 060630Z AUTO 13010KT 9999 // OVC008 OVC012 25/25 Q1010
YPXM 060615Z AUTO 13009KT 9999 // BKN008 OVC011 OVC018 25/25 Q1010